Time;durP1;ratioP1;P1;durP2;ratioP2;P2;SDS_P1;SDS_P2;PMS_P1;PMS_P2;Temp;Humidity;BMP_temperature;BMP_pressure;BME280_temperature;BME280_humidity;BME280_pressure;Samples;Min_cycle;Max_cycle;Signal;HPM_P1;HPM_P2
2022/04/21 00:00:36;;;;;;;;;;;;;;;19.47;62.17;98108.09;2083968;28;19971;-52
2022/04/21 00:01:36;;;;;;;;;;;;;;;19.48;62.23;98107.06;2085535;28;19932;-53
2022/04/21 00:02:38;;;;;;;;;;;;;;;19.48;62.82;98105.19;2086796;28;19932;-51
2022/04/21 00:03:38;;;;;;;;;;;;;;;19.47;62.50;98106.22;2087872;28;20494;-53
2022/04/21 00:04:41;;;;;;;;;;;;;;;19.48;62.55;98109.75;2087359;28;19924;-50
2022/04/21 00:05:42;;;;;;;;;;;;;;;19.46;62.92;98106.47;2086892;28;19924;-51
2022/04/21 00:06:44;;;;;;;;;;;;;;;19.45;62.84;98102.97;2086147;28;19931;-49
2022/04/21 00:07:47;;;;;;;;;;;;;;;19.46;62.12;98101.91;2086093;28;19924;-51
2022/04/21 00:08:48;;;;;;;;;;;;;;;19.46;62.33;98106.47;2085772;28;19924;-50
2022/04/21 00:09:49;;;;;;;;;;;;;;;19.45;62.53;98105.66;2084618;28;19936;-50
2022/04/21 00:10:50;;;;;;;;;;;;;;;19.46;62.92;98103.78;2081904;28;19928;-53
2022/04/21 00:11:51;;;;;;;;;;;;;;;19.45;62.59;98094.06;2083002;28;19936;-50
2022/04/21 00:12:54;;;;;;;;;;;;;;;19.45;62.13;98102.16;2086269;28;20289;-52
2022/04/21 00:13:55;;;;;;;;;;;;;;;19.45;63.57;98104.84;2086258;28;20051;-51
2022/04/21 00:14:56;;;;;;;;;;;;;;;19.45;62.70;98099.44;2086635;28;20395;-54
2022/04/21 00:15:58;;;;;;;;;;;;;;;19.43;62.69;98097.78;2084999;28;19929;-50
2022/04/21 00:16:58;;;;;;;;;;;;;;;19.45;62.75;98099.44;2083094;28;19935;-54
2022/04/21 00:18:01;;;;;;;;;;;;;;;19.43;62.61;98092.41;2086924;28;19925;-49
2022/04/21 00:19:01;;;;;;;;;;;;;;;19.43;62.81;98097.78;2085849;28;19928;-51
2022/04/21 00:20:04;;;;;;;;;;;;;;;19.45;62.55;98088.69;2088004;28;19924;-52
2022/04/21 00:21:05;;;;;;;;;;;;;;;19.43;62.87;98087.03;2085790;28;20647;-52
2022/04/21 00:23:29;;;;;;;;;;;;;;;19.42;63.40;98085.41;2073737;28;20498;-54
2022/04/21 00:24:29;;;;;;;;;;;;;;;19.41;62.39;98088.28;2080200;28;19967;-51
2022/04/21 00:25:31;;;;;;;;;;;;;;;19.42;63.26;98080.03;2084729;28;19931;-53
2022/04/21 00:26:31;;;;;;;;;;;;;;;19.42;62.98;98085.41;2088169;28;20019;-53
2022/04/21 00:27:39;;;;;;;;;;;;;;;19.41;63.54;98081.03;2085127;28;19931;-52
2022/04/21 00:28:41;;;;;;;;;;;;;;;19.42;63.09;98087.28;2083936;28;20336;-53
2022/04/21 00:29:43;;;;;;;;;;;;;;;19.42;63.32;98077.31;2087058;28;19956;-53
2022/04/21 00:30:45;;;;;;;;;;;;;;;19.41;63.15;98083.72;2087257;28;19925;-53
2022/04/21 00:31:45;;;;;;;;;;;;;;;19.41;63.40;98078.34;2088204;28;20027;-53
2022/04/21 00:32:47;;;;;;;;;;;;;;;19.41;62.91;98081.03;2084936;28;20393;-57
2022/04/21 00:33:48;;;;;;;;;;;;;;;19.42;63.06;98079.19;2086190;28;19931;-53
2022/04/21 00:34:49;;;;;;;;;;;;;;;19.41;63.51;98078.34;2087102;28;20337;-52
2022/04/21 00:35:52;;;;;;;;;;;;;;;19.41;63.39;98078.34;2088203;28;19920;-55
2022/04/21 00:36:52;;;;;;;;;;;;;;;19.40;62.82;98073.22;2084817;28;19931;-54
2022/04/21 00:37:55;;;;;;;;;;;;;;;19.40;63.44;98075.91;2087270;28;20451;-48
2022/04/21 00:38:55;;;;;;;;;;;;;;;19.40;63.43;98075.91;2083163;28;19931;-53
2022/04/21 00:39:57;;;;;;;;;;;;;;;19.41;63.14;98078.34;2081772;28;20861;-49
2022/04/21 00:40:58;;;;;;;;;;;;;;;19.39;63.80;98072.41;2083535;28;19931;-55
2022/04/21 00:41:59;;;;;;;;;;;;;;;19.39;63.55;98080.47;2085646;28;20500;-56
2022/04/21 00:43:01;;;;;;;;;;;;;;;19.39;63.46;98075.09;2085615;28;19924;-54
2022/04/21 00:44:02;;;;;;;;;;;;;;;19.39;63.79;98074.28;2087382;28;19936;-52
2022/04/21 00:45:04;;;;;;;;;;;;;;;19.39;63.50;98071.59;2084958;28;19924;-54
2022/04/21 00:46:06;;;;;;;;;;;;;;;19.37;63.75;98071.78;2086071;28;20476;-57
2022/04/21 00:47:07;;;;;;;;;;;;;;;19.38;63.58;98073.41;2088384;28;19963;-50
2022/04/21 00:48:09;;;;;;;;;;;;;;;19.38;63.80;98073.41;2084849;28;19924;-57
2022/04/21 00:49:09;;;;;;;;;;;;;;;19.35;63.86;98068.50;2086521;28;19934;-50
2022/04/21 00:50:13;;;;;;;;;;;;;;;19.37;63.33;98070.97;2086725;28;19927;-50
2022/04/21 00:51:15;;;;;;;;;;;;;;;19.37;63.78;98069.09;2085589;28;19935;-54
2022/04/21 00:52:17;;;;;;;;;;;;;;;19.36;63.80;98070.16;2086500;28;19924;-55
2022/04/21 00:53:17;;;;;;;;;;;;;;;19.36;64.02;98072.00;2085360;28;19932;-49
2022/04/21 00:54:19;;;;;;;;;;;;;;;19.36;63.84;98058.56;2081675;28;19929;-56
2022/04/21 00:55:20;;;;;;;;;;;;;;;19.36;64.08;98066.63;2086793;28;19969;-54
2022/04/21 00:56:22;;;;;;;;;;;;;;;19.36;63.46;98063.94;2087672;28;19935;-56
2022/04/21 00:57:22;;;;;;;;;;;;;;;19.36;64.10;98066.63;2087875;28;20533;-56
2022/04/21 00:58:24;;;;;;;;;;;;;;;19.36;63.80;98063.94;2085267;28;19928;-58
2022/04/21 00:59:25;;;;;;;;;;;;;;;19.35;63.99;98064.97;2083936;28;19924;-55
2022/04/21 01:00:26;;;;;;;;;;;;;;;19.35;63.94;98063.13;2086174;28;19924;-51
2022/04/21 01:02:46;;;;;;;;;;;;;;;19.35;64.20;98055.03;2087265;28;19924;-55
2022/04/21 01:03:48;;;;;;;;;;;;;;;19.35;64.34;98056.91;2086127;28;20034;-54
2022/04/21 01:04:49;;;;;;;;;;;;;;;19.34;64.24;98063.34;2086101;28;19970;-50
2022/04/21 01:05:51;;;;;;;;;;;;;;;19.34;64.23;98057.97;2087326;28;19932;-51
2022/04/21 01:06:53;;;;;;;;;;;;;;;19.32;64.20;98057.38;2085442;28;19985;-57
2022/04/21 01:07:55;;;;;;;;;;;;;;;19.32;64.58;98058.19;2087035;28;20305;-53
2022/04/21 01:08:56;;;;;;;;;;;;;;;19.32;64.23;98055.50;2081970;28;20295;-54
2022/04/21 01:09:57;;;;;;;;;;;;;;;19.33;64.56;98048.25;2085487;28;19927;-53
2022/04/21 01:10:59;;;;;;;;;;;;;;;19.32;64.42;98054.69;2086281;28;20389;-53
2022/04/21 01:11:59;;;;;;;;;;;;;;;19.33;64.30;98056.31;2087995;28;19929;-49
2022/04/21 01:13:04;;;;;;;;;;;;;;;19.33;64.82;98048.25;2085658;28;19935;-50
2022/04/21 01:14:04;;;;;;;;;;;;;;;19.32;64.87;98047.44;2085235;28;19955;-51
2022/04/21 01:15:06;;;;;;;;;;;;;;;19.31;64.45;98051.16;2082503;28;20576;-54
2022/04/21 01:16:08;;;;;;;;;;;;;;;19.32;64.90;98052.81;2084851;28;19924;-50
2022/04/21 01:17:09;;;;;;;;;;;;;;;19.31;64.37;98045.78;2085342;28;19921;-53
2022/04/21 01:18:12;;;;;;;;;;;;;;;19.31;64.62;98053.84;2085734;28;19928;-50
2022/04/21 01:19:13;;;;;;;;;;;;;;;19.30;64.74;98044.13;2080173;28;19935;-52
2022/04/21 01:20:16;;;;;;;;;;;;;;;19.30;64.61;98046.00;2085854;28;20229;-55
2022/04/21 01:21:17;;;;;;;;;;;;;;;19.30;64.89;98041.44;2087016;28;19973;-49
2022/04/21 01:22:19;;;;;;;;;;;;;;;19.31;64.89;98047.66;2087060;28;20621;-51
2022/04/21 01:23:19;;;;;;;;;;;;;;;19.30;64.52;98046.00;2088443;28;20738;-50
2022/04/21 01:24:21;;;;;;;;;;;;;;;19.30;64.92;98044.13;2084662;28;19924;-53
2022/04/21 01:25:22;;;;;;;;;;;;;;;19.31;64.85;98053.03;2084626;28;19921;-58
2022/04/21 01:26:24;;;;;;;;;;;;;;;19.31;65.15;98047.66;2086465;28;19932;-57
2022/04/21 01:27:26;;;;;;;;;;;;;;;19.31;64.63;98051.16;2083058;28;20314;-50
2022/04/21 01:28:29;;;;;;;;;;;;;;;19.30;64.57;98046.81;2087316;28;19959;-55
2022/04/21 01:29:30;;;;;;;;;;;;;;;19.30;64.78;98043.31;2083284;28;19935;-50
2022/04/21 01:30:31;;;;;;;;;;;;;;;19.29;64.63;98042.50;2086319;28;20026;-48
2022/04/21 01:31:32;;;;;;;;;;;;;;;19.30;64.76;98043.31;2088289;28;20031;-53
2022/04/21 01:32:35;;;;;;;;;;;;;;;19.30;64.63;98046.00;2088493;28;19932;-53
2022/04/21 01:33:37;;;;;;;;;;;;;;;19.30;64.90;98046.00;2087848;28;19924;-51
2022/04/21 01:34:39;;;;;;;;;;;;;;;19.30;64.69;98048.69;2088964;28;20387;-52
2022/04/21 01:35:42;;;;;;;;;;;;;;;19.30;64.72;98043.31;2077596;28;19932;-51
2022/04/21 01:41:56;;;;;;;;;;;;;;;19.31;64.44;98045.78;2079023;28;20071;-57
2022/04/21 01:42:58;;;;;;;;;;;;;;;19.29;64.77;98039.81;2083554;28;19951;-57
2022/04/21 01:43:59;;;;;;;;;;;;;;;19.28;64.36;98048.09;2085708;28;19932;-53
2022/04/21 01:45:00;;;;;;;;;;;;;;;19.28;64.39;98045.41;2086793;28;20023;-53
2022/04/21 01:46:01;;;;;;;;;;;;;;;19.29;64.43;98041.69;2086653;28;19935;-51
2022/04/21 01:47:02;;;;;;;;;;;;;;;19.27;64.49;98047.25;2087215;28;20019;-57
2022/04/21 01:48:04;;;;;;;;;;;;;;;19.29;64.35;98044.38;2086680;28;20451;-52
2022/04/21 01:49:04;;;;;;;;;;;;;;;19.27;64.58;98041.88;2087422;28;19967;-55
2022/04/21 01:50:07;;;;;;;;;;;;;;;19.28;64.75;98040.00;2086774;28;19925;-57
2022/04/21 01:51:09;;;;;;;;;;;;;;;19.28;63.99;98037.31;2084971;28;19920;-57
2022/04/21 01:52:11;;;;;;;;;;;;;;;19.27;64.38;98035.69;2077640;28;19956;-50
2022/04/21 01:53:12;;;;;;;;;;;;;;;19.27;64.57;98036.50;2083337;28;19979;-54
2022/04/21 01:54:13;;;;;;;;;;;;;;;19.27;64.70;98039.19;2084134;28;20378;-50
2022/04/21 01:55:14;;;;;;;;;;;;;;;19.28;65.14;98034.63;2085363;28;19929;-53
2022/04/21 01:56:17;;;;;;;;;;;;;;;19.27;64.69;98035.69;2086375;28;19924;-53
2022/04/21 01:57:18;;;;;;;;;;;;;;;19.27;64.76;98028.44;2085675;28;20302;-52
2022/04/21 01:58:20;;;;;;;;;;;;;;;19.26;64.61;98031.38;2082955;28;19921;-54
2022/04/21 01:59:20;;;;;;;;;;;;;;;19.25;65.00;98033.25;2086454;28;19921;-49
2022/04/21 02:00:22;;;;;;;;;;;;;;;19.24;64.98;98038.84;2080852;28;19978;-56
2022/04/21 02:01:22;;;;;;;;;;;;;;;19.24;64.94;98039.66;2085177;28;20039;-52
2022/04/21 02:02:24;;;;;;;;;;;;;;;19.24;65.12;98034.28;2084885;28;20535;-54
2022/04/21 02:03:25;;;;;;;;;;;;;;;19.25;65.03;98035.09;2085512;28;19993;-50
2022/04/21 02:04:26;;;;;;;;;;;;;;;19.23;64.93;98032.63;2085293;28;19924;-55
2022/04/21 02:05:27;;;;;;;;;;;;;;;19.25;64.82;98029.72;2086284;28;20411;-53
2022/04/21 02:06:29;;;;;;;;;;;;;;;19.25;65.20;98038.63;2086181;28;20007;-50
2022/04/21 02:07:31;;;;;;;;;;;;;;;19.25;64.94;98027.03;2086318;28;19947;-50
2022/04/21 02:08:33;;;;;;;;;;;;;;;19.24;64.95;98030.75;2086180;28;20454;-51
2022/04/21 02:09:34;;;;;;;;;;;;;;;19.25;64.45;98027.88;2085117;28;19948;-54
2022/04/21 02:10:36;;;;;;;;;;;;;;;19.25;64.88;98035.94;2079745;28;21333;-57
2022/04/21 02:11:36;;;;;;;;;;;;;;;19.26;65.38;98034.88;2085672;28;19920;-54
2022/04/21 02:12:38;;;;;;;;;;;;;;;19.24;64.95;98028.91;2086650;28;20022;-54
2022/04/21 02:13:38;;;;;;;;;;;;;;;19.25;64.99;98029.72;2085775;28;20409;-55
2022/04/21 02:14:40;;;;;;;;;;;;;;;19.24;65.30;98030.75;2086699;28;19928;-51
2022/04/21 02:15:41;;;;;;;;;;;;;;;19.25;65.30;98029.72;2087623;28;20599;-47
2022/04/21 02:16:42;;;;;;;;;;;;;;;19.22;65.81;98022.91;2084600;28;19994;-54
2022/04/21 02:17:44;;;;;;;;;;;;;;;19.23;65.39;98024.56;2086083;28;20621;-54
2022/04/21 02:18:44;;;;;;;;;;;;;;;19.23;65.77;98027.25;2087341;28;19963;-54
2022/04/21 02:19:46;;;;;;;;;;;;;;;19.23;65.53;98026.44;2086122;28;20841;-53
2022/04/21 02:20:47;;;;;;;;;;;;;;;19.21;65.36;98023.97;2086297;28;19925;-51
2022/04/21 02:21:49;;;;;;;;;;;;;;;19.22;65.79;98019.41;2084043;28;19928;-53
2022/04/21 02:22:51;;;;;;;;;;;;;;;19.21;65.00;98018.59;2082678;28;20055;-49
2022/04/21 02:23:51;;;;;;;;;;;;;;;19.23;65.58;98018.38;2081362;28;19931;-52
2022/04/21 02:24:53;;;;;;;;;;;;;;;19.22;65.57;98017.53;2076138;28;19927;-50
2022/04/21 02:25:54;;;;;;;;;;;;;;;19.22;65.36;98019.41;2084339;28;19929;-54
2022/04/21 02:26:55;;;;;;;;;;;;;;;19.20;65.73;98008.88;2085811;28;20272;-47
2022/04/21 02:27:57;;;;;;;;;;;;;;;19.21;65.87;98013.22;2086973;28;19924;-52
2022/04/21 02:28:57;;;;;;;;;;;;;;;19.21;65.83;98002.47;2086456;28;19924;-49
2022/04/21 02:29:59;;;;;;;;;;;;;;;19.22;65.71;98001.41;2083269;28;19921;-52
2022/04/21 02:31:00;;;;;;;;;;;;;;;19.22;65.52;98005.97;2085571;28;19929;-50
2022/04/21 02:32:01;;;;;;;;;;;;;;;19.22;65.59;98001.41;2086171;28;19924;-54
2022/04/21 02:33:03;;;;;;;;;;;;;;;19.22;65.79;98004.09;2086186;28;19925;-51
2022/04/21 02:34:03;;;;;;;;;;;;;;;19.22;65.59;97996.03;2082307;28;19924;-55
2022/04/21 02:35:06;;;;;;;;;;;;;;;19.22;65.83;97995.22;2087070;28;20173;-50
2022/04/21 02:36:07;;;;;;;;;;;;;;;19.21;65.79;97994.38;2085100;28;19931;-54
2022/04/21 02:37:10;;;;;;;;;;;;;;;19.20;65.79;97990.06;2087679;28;19956;-55
2022/04/21 02:38:11;;;;;;;;;;;;;;;19.20;65.38;97992.75;2085298;28;19928;-55
2022/04/21 02:39:12;;;;;;;;;;;;;;;19.20;65.66;97992.75;2080674;28;19948;-49
2022/04/21 02:40:14;;;;;;;;;;;;;;;19.18;65.42;97987.59;2086903;28;20407;-54
2022/04/21 02:41:16;;;;;;;;;;;;;;;19.19;65.62;97989.25;2086786;28;19928;-52
2022/04/21 02:42:19;;;;;;;;;;;;;;;19.18;65.30;97986.78;2084152;28;19925;-55
2022/04/21 02:43:20;;;;;;;;;;;;;;;19.18;66.02;97984.91;2086535;28;19925;-54
2022/04/21 02:44:21;;;;;;;;;;;;;;;19.17;65.62;97979.78;2087048;28;19932;-52
2022/04/21 02:45:24;;;;;;;;;;;;;;;19.16;66.15;97975.41;2086576;28;19924;-54
2022/04/21 02:46:27;;;;;;;;;;;;;;;19.14;65.85;97977.53;2088160;28;19960;-52
2022/04/21 02:47:29;;;;;;;;;;;;;;;19.13;66.28;97979.38;2084457;28;20594;-51
2022/04/21 02:48:30;;;;;;;;;;;;;;;19.15;65.84;97973.78;2086075;28;19951;-56
2022/04/21 02:49:32;;;;;;;;;;;;;;;19.16;65.50;97976.22;2086383;28;19928;-55
2022/04/21 02:50:32;;;;;;;;;;;;;;;19.16;65.68;97976.22;2086878;28;19921;-57
2022/04/21 02:51:34;;;;;;;;;;;;;;;19.17;65.92;97971.69;2085761;28;20640;-51
2022/04/21 02:52:37;;;;;;;;;;;;;;;19.16;65.86;97964.66;2087321;28;19928;-54
2022/04/21 02:57:36;;;;;;;;;;;;;;;19.12;66.12;97956.22;2087834;28;19924;-47
2022/04/21 02:58:36;;;;;;;;;;;;;;;19.12;66.13;97952.72;2085177;28;19928;-51
2022/04/21 02:59:38;;;;;;;;;;;;;;;19.12;66.06;97955.41;2085699;28;19928;-53
2022/04/21 03:00:38;;;;;;;;;;;;;;;19.14;65.99;97950.66;2086358;28;20478;-53
2022/04/21 03:01:40;;;;;;;;;;;;;;;19.13;65.82;97949.81;2085161;28;19924;-54
2022/04/21 03:02:41;;;;;;;;;;;;;;;19.14;65.71;97951.47;2076616;28;19928;-58
2022/04/21 03:03:42;;;;;;;;;;;;;;;19.15;66.03;97946.91;2082228;28;19924;-53
2022/04/21 03:04:43;;;;;;;;;;;;;;;19.15;65.95;97946.91;2078105;28;19932;-53
2022/04/21 03:05:44;;;;;;;;;;;;;;;19.14;66.02;97951.47;2083501;28;20443;-54
2022/04/21 03:06:45;;;;;;;;;;;;;;;19.12;65.97;97945.47;2084487;28;20035;-51
2022/04/21 03:07:48;;;;;;;;;;;;;;;19.14;65.76;97943.41;2087748;28;20374;-49
2022/04/21 03:08:48;;;;;;;;;;;;;;;19.14;65.69;97943.41;2082612;28;22204;-58
2022/04/21 03:09:50;;;;;;;;;;;;;;;19.14;65.99;97937.22;2085690;28;19924;-54
2022/04/21 03:10:50;;;;;;;;;;;;;;;19.13;66.06;97935.53;2085807;28;20351;-54
2022/04/21 03:11:52;;;;;;;;;;;;;;;19.11;66.29;97927.72;2083769;28;19931;-52
2022/04/21 03:12:52;;;;;;;;;;;;;;;19.09;65.73;97921.75;2086369;28;19924;-52
2022/04/21 03:13:54;;;;;;;;;;;;;;;19.10;66.20;97917.19;2088706;28;19985;-53
2022/04/21 03:14:55;;;;;;;;;;;;;;;19.11;66.08;97922.34;2085075;28;19921;-54
2022/04/21 03:15:57;;;;;;;;;;;;;;;19.12;66.26;97923.16;2085172;28;19935;-53
2022/04/21 03:16:57;;;;;;;;;;;;;;;19.12;65.93;97915.91;2083845;28;19925;-54
2022/04/21 03:17:59;;;;;;;;;;;;;;;19.12;66.18;97907.03;2087656;28;19920;-54
2022/04/21 03:18:59;;;;;;;;;;;;;;;19.13;66.16;97920.22;2087645;28;20444;-54
2022/04/21 03:20:01;;;;;;;;;;;;;;;19.13;66.32;97916.72;2088478;28;19928;-53
2022/04/21 03:25:07;;;;;;;;;;;;;;;19.08;66.46;97911.19;2065058;28;19928;-50
2022/04/21 03:26:15;;;;;;;;;;;;;;;19.08;66.29;97905.81;2085824;28;19928;-50
2022/04/21 03:27:17;;;;;;;;;;;;;;;19.08;66.49;97905.81;2088193;28;19931;-53
2022/04/21 03:28:17;;;;;;;;;;;;;;;19.09;66.31;97907.47;2084593;28;19920;-51
2022/04/21 03:29:19;;;;;;;;;;;;;;;19.07;66.66;97910.38;2087204;28;19928;-51
2022/04/21 03:30:20;;;;;;;;;;;;;;;19.07;66.76;97909.56;2087058;28;19928;-53
2022/04/21 03:31:23;;;;;;;;;;;;;;;19.07;66.56;97912.25;2083500;28;21011;-51
2022/04/21 03:32:26;;;;;;;;;;;;;;;19.05;66.12;97906.28;2085567;28;20283;-51
2022/04/21 03:33:28;;;;;;;;;;;;;;;19.06;66.28;97907.94;2086891;28;19943;-55
2022/04/21 03:34:28;;;;;;;;;;;;;;;19.06;66.21;97913.31;2085534;28;19974;-54
2022/04/21 03:35:30;;;;;;;;;;;;;;;19.08;65.94;97903.94;2087566;28;19921;-53
2022/04/21 03:36:32;;;;;;;;;;;;;;;19.07;66.32;97906.88;2086267;28;19982;-51
2022/04/21 03:37:33;;;;;;;;;;;;;;;19.07;66.45;97906.88;2087740;28;20417;-54
2022/04/21 03:38:37;;;;;;;;;;;;;;;19.06;66.20;97906.06;2081381;28;19959;-52
2022/04/21 03:39:40;;;;;;;;;;;;;;;19.05;66.15;97901.72;2087026;28;19929;-52
2022/04/21 03:40:41;;;;;;;;;;;;;;;19.04;66.42;97905.47;2088606;28;20663;-51
2022/04/21 03:41:42;;;;;;;;;;;;;;;19.05;66.29;97901.72;2088914;28;19920;-49
2022/04/21 03:42:43;;;;;;;;;;;;;;;19.05;66.04;97901.72;2085526;28;19924;-53
2022/04/21 03:43:44;;;;;;;;;;;;;;;19.04;66.06;97905.47;2087546;28;20410;-53
2022/04/21 03:44:46;;;;;;;;;;;;;;;19.04;66.40;97904.66;2086111;28;20441;-51
2022/04/21 03:45:47;;;;;;;;;;;;;;;19.03;66.38;97906.50;2084847;28;19959;-52
2022/04/21 03:46:48;;;;;;;;;;;;;;;19.03;66.38;97905.66;2087930;28;19920;-50
2022/04/21 03:47:49;;;;;;;;;;;;;;;19.02;66.17;97898.66;2087695;28;20007;-52
2022/04/21 03:48:50;;;;;;;;;;;;;;;19.02;66.58;97904.84;2088953;28;19935;-52
2022/04/21 03:49:51;;;;;;;;;;;;;;;19.01;66.61;97905.91;2088482;28;19928;-54
2022/04/21 03:50:52;;;;;;;;;;;;;;;19.02;66.63;97898.66;2085356;28;19924;-52
2022/04/21 03:51:53;;;;;;;;;;;;;;;19.03;66.59;97902.97;2087775;28;20004;-53
2022/04/21 03:52:54;;;;;;;;;;;;;;;19.01;66.51;97905.91;2088640;28;20366;-51
2022/04/21 03:53:55;;;;;;;;;;;;;;;19.02;66.50;97906.72;2083045;28;19932;-52
2022/04/21 03:54:58;;;;;;;;;;;;;;;19.02;66.51;97909.41;2088678;28;19921;-51
2022/04/21 03:55:58;;;;;;;;;;;;;;;19.01;66.75;97910.47;2087655;28;19925;-52
2022/04/21 03:57:00;;;;;;;;;;;;;;;19.00;66.65;97911.50;2086526;28;19932;-53
2022/04/21 03:58:00;;;;;;;;;;;;;;;19.00;66.93;97909.66;2088718;28;20012;-54
2022/04/21 03:59:02;;;;;;;;;;;;;;;18.99;66.76;97918.75;2086165;28;20704;-53
2022/04/21 04:00:03;;;;;;;;;;;;;;;19.00;66.82;97915.03;2087813;28;20039;-50
2022/04/21 04:01:04;;;;;;;;;;;;;;;19.00;66.61;97919.56;2086214;28;19932;-51
2022/04/21 04:02:06;;;;;;;;;;;;;;;18.98;66.80;97917.94;2088957;28;19932;-50
2022/04/21 04:03:06;;;;;;;;;;;;;;;19.01;66.74;97921.22;2088938;28;19925;-48
2022/04/21 04:04:08;;;;;;;;;;;;;;;19.00;66.88;97916.88;2088069;28;20015;-51
2022/04/21 04:05:09;;;;;;;;;;;;;;;19.01;66.73;97922.03;2088948;28;19975;-50
2022/04/21 04:11:24;;;;;;;;;;;;;;;18.96;66.91;97909.25;2088607;28;19920;-53
2022/04/21 04:12:29;;;;;;;;;;;;;;;18.96;66.64;97911.13;2087713;28;19954;-52
2022/04/21 04:13:30;;;;;;;;;;;;;;;18.94;66.51;97900.63;2087368;28;19924;-49
2022/04/21 04:14:31;;;;;;;;;;;;;;;18.94;66.73;97903.31;2085980;28;19929;-49
2022/04/21 04:15:33;;;;;;;;;;;;;;;18.94;66.52;97895.25;2086227;28;19928;-51
2022/04/21 04:16:34;;;;;;;;;;;;;;;18.93;66.45;97890.91;2086457;28;20558;-52
2022/04/21 04:17:36;;;;;;;;;;;;;;;18.92;66.76;97891.13;2087919;28;19960;-52
2022/04/21 04:18:37;;;;;;;;;;;;;;;18.92;66.39;97891.94;2088390;28;20014;-51
2022/04/21 04:19:38;;;;;;;;;;;;;;;18.91;66.54;97892.97;2088850;28;19921;-51
2022/04/21 04:20:39;;;;;;;;;;;;;;;18.91;66.64;97894.84;2088396;28;19954;-53
2022/04/21 04:21:40;;;;;;;;;;;;;;;18.93;66.57;97904.34;2086605;28;21265;-53
2022/04/21 04:22:42;;;;;;;;;;;;;;;18.93;66.62;97898.16;2085612;28;20290;-51
2022/04/21 04:23:43;;;;;;;;;;;;;;;18.94;66.47;97894.41;2088134;28;19924;-52
2022/04/21 04:24:44;;;;;;;;;;;;;;;18.92;66.53;97891.13;2083924;28;19921;-54
2022/04/21 04:25:47;;;;;;;;;;;;;;;18.92;66.72;97896.50;2086053;28;19928;-51
2022/04/21 04:26:48;;;;;;;;;;;;;;;18.91;66.88;97901.03;2085393;28;19928;-51
2022/04/21 04:27:50;;;;;;;;;;;;;;;18.90;66.58;97895.91;2087126;28;19925;-53
2022/04/21 04:28:50;;;;;;;;;;;;;;;18.93;66.64;97898.97;2087088;28;19920;-54
2022/04/21 04:29:52;;;;;;;;;;;;;;;18.93;66.52;97898.97;2081899;28;20540;-52
2022/04/21 04:30:52;;;;;;;;;;;;;;;18.94;66.47;97905.16;2086838;28;19924;-53
2022/04/21 04:31:54;;;;;;;;;;;;;;;18.89;66.34;97900.47;2086753;28;20402;-52
2022/04/21 04:32:54;;;;;;;;;;;;;;;18.90;66.37;97904.78;2086112;28;19928;-52
2022/04/21 04:33:56;;;;;;;;;;;;;;;18.91;66.56;97905.59;2087193;28;20041;-53
2022/04/21 04:34:56;;;;;;;;;;;;;;;18.93;66.67;97906.19;2084710;28;19925;-52
2022/04/21 04:35:58;;;;;;;;;;;;;;;18.92;66.63;97912.63;2083834;28;20477;-54
2022/04/21 04:36:58;;;;;;;;;;;;;;;18.93;66.68;97909.72;2088118;28;19968;-54
2022/04/21 04:38:00;;;;;;;;;;;;;;;18.92;66.66;97907.25;2083056;28;20447;-53
2022/04/21 04:39:00;;;;;;;;;;;;;;;18.90;66.70;97904.78;2086839;28;19921;-50
2022/04/21 04:40:02;;;;;;;;;;;;;;;18.91;66.73;97909.09;2088293;28;20023;-53
2022/04/21 04:42:23;;;;;;;;;;;;;;;18.91;66.64;97910.97;2086346;28;19925;-54
2022/04/21 04:43:25;;;;;;;;;;;;;;;18.89;66.88;97913.91;2087274;28;19979;-53
2022/04/21 04:44:26;;;;;;;;;;;;;;;18.90;67.00;97904.78;2085802;28;19924;-53
2022/04/21 04:46:46;;;;;;;;;;;;;;;18.89;66.85;97905.84;2085258;28;19929;-52
2022/04/21 04:47:47;;;;;;;;;;;;;;;18.89;66.85;97908.53;2089277;28;19932;-52
2022/04/21 04:48:47;;;;;;;;;;;;;;;18.87;66.92;97907.91;2088644;28;20363;-51
2022/04/21 04:49:49;;;;;;;;;;;;;;;18.90;66.76;97904.78;2087458;28;19932;-52
2022/04/21 04:50:49;;;;;;;;;;;;;;;18.89;66.94;97902.34;2083487;28;19920;-52
2022/04/21 04:51:51;;;;;;;;;;;;;;;18.89;66.95;97896.97;2086287;28;19924;-51
2022/04/21 04:52:56;;;;;;;;;;;;;;;18.88;66.74;97898.81;2087513;28;19940;-53
2022/04/21 04:53:57;;;;;;;;;;;;;;;18.85;66.83;97898.44;2083964;28;19946;-49
2022/04/21 04:54:59;;;;;;;;;;;;;;;18.86;66.81;97902.75;2085847;28;19939;-53
2022/04/21 04:56:00;;;;;;;;;;;;;;;18.86;66.73;97898.22;2087403;28;20054;-52
2022/04/21 04:57:03;;;;;;;;;;;;;;;18.85;67.07;97901.94;2087035;28;19968;-54
2022/04/21 04:58:04;;;;;;;;;;;;;;;18.86;67.10;97897.38;2087250;28;20446;-52
2022/04/21 04:59:06;;;;;;;;;;;;;;;18.87;66.64;97905.22;2086994;28;19928;-52
2022/04/21 05:00:07;;;;;;;;;;;;;;;18.87;67.02;97894.47;2085747;28;20011;-53
2022/04/21 05:01:09;;;;;;;;;;;;;;;18.87;66.61;97894.47;2086659;28;19920;-51
2022/04/21 05:02:10;;;;;;;;;;;;;;;18.86;66.86;97898.22;2084138;28;19929;-53
2022/04/21 05:03:12;;;;;;;;;;;;;;;18.88;66.84;97900.66;2087232;28;19928;-52
2022/04/21 05:04:14;;;;;;;;;;;;;;;18.85;66.48;97896.56;2087422;28;20764;-49
2022/04/21 05:05:14;;;;;;;;;;;;;;;18.85;66.31;97896.56;2086066;28;20346;-52
2022/04/21 05:06:16;;;;;;;;;;;;;;;18.84;66.48;97894.13;2085102;28;19928;-52
2022/04/21 05:07:17;;;;;;;;;;;;;;;18.84;66.59;97896.81;2086228;28;19920;-53
2022/04/21 05:08:18;;;;;;;;;;;;;;;18.81;66.61;97892.69;2084907;28;20425;-54
2022/04/21 05:09:20;;;;;;;;;;;;;;;18.83;66.69;97893.28;2086674;28;19924;-52
2022/04/21 05:10:23;;;;;;;;;;;;;;;18.83;66.92;97892.47;2086542;28;20468;-50
2022/04/21 05:11:23;;;;;;;;;;;;;;;18.85;66.64;97893.88;2081430;28;19977;-51
2022/04/21 05:12:27;;;;;;;;;;;;;;;18.84;66.94;97892.25;2087412;28;19928;-50
2022/04/21 05:13:27;;;;;;;;;;;;;;;18.84;66.73;97889.56;2086190;28;20077;-51
2022/04/21 05:14:29;;;;;;;;;;;;;;;18.87;66.77;97888.28;2087480;28;19925;-51
2022/04/21 05:15:29;;;;;;;;;;;;;;;18.84;66.92;97883.38;2085884;28;19964;-49
2022/04/21 05:16:31;;;;;;;;;;;;;;;18.86;66.67;97886.63;2084909;28;20413;-53
2022/04/21 05:17:32;;;;;;;;;;;;;;;18.83;66.90;97885.22;2088192;28;20394;-51
2022/04/21 05:18:34;;;;;;;;;;;;;;;18.84;67.09;97886.88;2083186;28;19920;-55
2022/04/21 05:19:34;;;;;;;;;;;;;;;18.89;66.53;97881.66;2082003;28;19924;-50
2022/04/21 05:20:36;;;;;;;;;;;;;;;18.97;66.33;97888.56;2079948;28;19924;-45
2022/04/21 05:21:37;;;;;;;;;;;;;;;19.01;66.92;97880.91;2084177;28;19931;-49
2022/04/21 05:22:39;;;;;;;;;;;;;;;19.03;66.54;97887.69;2084217;28;19986;-45
2022/04/21 05:23:40;;;;;;;;;;;;;;;19.01;66.73;97887.09;2079110;28;20490;-46
2022/04/21 05:24:45;;;;;;;;;;;;;;;18.98;66.21;97883.00;2074351;28;19928;-43
2022/04/21 05:25:46;;;;;;;;;;;;;;;19.01;65.97;97886.28;2081655;28;20822;-47
2022/04/21 05:26:48;;;;;;;;;;;;;;;18.97;66.09;97883.19;2078698;28;19928;-46
2022/04/21 05:27:50;;;;;;;;;;;;;;;18.94;65.85;97889.88;2084042;28;20050;-46
2022/04/21 05:28:52;;;;;;;;;;;;;;;18.91;65.60;97884.91;2084188;28;19936;-45
2022/04/21 05:31:12;;;;;;;;;;;;;;;18.89;65.45;97887.03;2085173;28;19925;-47
2022/04/21 05:32:17;;;;;;;;;;;;;;;18.87;64.92;97882.91;2080903;28;19933;-44
2022/04/21 05:33:20;;;;;;;;;;;;;;;18.87;65.04;97885.59;2083751;28;19928;-45
2022/04/21 05:34:22;;;;;;;;;;;;;;;18.88;64.90;97887.25;2084071;28;19995;-46
2022/04/21 05:35:23;;;;;;;;;;;;;;;18.89;64.93;97881.66;2075384;28;19927;-47
2022/04/21 05:36:25;;;;;;;;;;;;;;;18.97;64.55;97881.34;2080667;28;19932;-51
2022/04/21 05:37:25;;;;;;;;;;;;;;;19.01;64.54;97883.59;2084737;28;22270;-54
2022/04/21 05:38:27;;;;;;;;;;;;;;;19.00;64.98;97884.63;2082952;28;19925;-52
2022/04/21 05:39:29;;;;;;;;;;;;;;;19.02;64.78;97886.03;2082289;28;19924;-51
2022/04/21 05:40:31;;;;;;;;;;;;;;;19.01;64.94;97895.16;2082302;28;19924;-50
2022/04/21 05:41:32;;;;;;;;;;;;;;;18.99;65.00;97897.25;2082572;28;19991;-53
2022/04/21 05:42:35;;;;;;;;;;;;;;;19.00;64.85;97892.69;2079684;28;20413;-51
2022/04/21 05:43:42;;;;;;;;;;;;;;;19.04;64.66;97893.91;2070465;28;19953;-55
2022/04/21 05:44:44;;;;;;;;;;;;;;;19.06;64.53;97889.94;2076043;28;19972;-50
2022/04/21 05:45:45;;;;;;;;;;;;;;;19.09;64.34;97889.50;2081961;28;19925;-48